createdAt,value
2022-07-29T00:00:10.790Z,20.65
2022-07-29T00:02:40.881Z,20.59
2022-07-29T00:05:14.483Z,20.58
2022-07-29T00:07:43.256Z,20.56
2022-07-29T00:10:11.806Z,20.51
2022-07-29T00:12:41.429Z,20.48
2022-07-29T00:15:11.158Z,20.43
2022-07-29T00:17:41.707Z,20.35
2022-07-29T00:20:12.187Z,20.34
2022-07-29T00:22:41.342Z,20.26
2022-07-29T00:25:10.781Z,20.22
2022-07-29T00:27:40.739Z,20.22
2022-07-29T00:30:10.589Z,20.20
2022-07-29T00:32:40.474Z,20.19
2022-07-29T00:35:27.999Z,20.18
2022-07-29T00:37:56.473Z,20.16
2022-07-29T00:40:25.972Z,20.09
2022-07-29T00:42:55.217Z,20.03
2022-07-29T00:45:24.790Z,20.01
2022-07-29T00:47:54.646Z,19.94
2022-07-29T00:50:23.259Z,19.94
2022-07-29T00:52:53.542Z,19.95
2022-07-29T00:55:22.884Z,19.90
2022-07-29T00:57:52.398Z,19.85
2022-07-29T01:00:27.175Z,19.75
2022-07-29T01:02:57.663Z,19.71
2022-07-29T01:05:48.511Z,19.70
2022-07-29T01:08:19.708Z,19.66
2022-07-29T01:10:49.986Z,19.54
2022-07-29T01:13:19.699Z,19.54
2022-07-29T01:15:57.892Z,19.55
2022-07-29T01:18:37.607Z,19.53
2022-07-29T01:21:42.386Z,19.50
2022-07-29T01:24:41.960Z,19.42
2022-07-29T01:27:41.338Z,19.32
2022-07-29T01:30:14.745Z,19.31
2022-07-29T01:32:52.290Z,19.25
2022-07-29T01:35:27.422Z,19.16
2022-07-29T01:38:10.475Z,19.13
2022-07-29T01:40:47.324Z,19.03
2022-07-29T01:43:22.458Z,18.96
2022-07-29T01:46:01.396Z,19.02
2022-07-29T01:48:42.434Z,18.99
2022-07-29T01:51:20.062Z,18.98
2022-07-29T01:53:57.633Z,18.97
2022-07-29T01:56:31.907Z,18.94
2022-07-29T01:59:03.796Z,18.89
2022-07-29T02:01:37.919Z,18.80
2022-07-29T02:04:11.512Z,18.81
2022-07-29T02:07:03.993Z,18.82
2022-07-29T02:09:36.951Z,18.71
2022-07-29T02:12:10.114Z,18.60
2022-07-29T02:14:44.534Z,18.58
2022-07-29T02:17:19.808Z,18.56
2022-07-29T02:19:51.847Z,18.52
2022-07-29T02:22:23.865Z,18.56
2022-07-29T02:24:56.434Z,18.58
2022-07-29T02:27:28.550Z,18.51
2022-07-29T02:30:00.624Z,18.46
2022-07-29T02:32:33.865Z,18.44
2022-07-29T02:35:04.584Z,18.47
2022-07-29T02:37:35.182Z,18.48
2022-07-29T02:40:06.519Z,18.40
2022-07-29T02:42:39.572Z,18.34
2022-07-29T02:45:10.803Z,18.35
2022-07-29T02:47:45.973Z,18.28
2022-07-29T02:50:19.754Z,18.28
2022-07-29T02:52:59.017Z,18.27
2022-07-29T02:55:34.380Z,18.28
2022-07-29T02:58:09.427Z,18.26
2022-07-29T03:00:43.405Z,18.23
2022-07-29T03:03:17.169Z,18.17
2022-07-29T03:05:45.810Z,18.14
2022-07-29T03:08:16.866Z,18.17
2022-07-29T03:10:48.974Z,18.18
2022-07-29T03:13:18.280Z,18.17
2022-07-29T03:15:49.458Z,18.18
2022-07-29T03:18:20.292Z,18.20
2022-07-29T03:20:49.328Z,18.21
2022-07-29T03:23:23.702Z,18.24
2022-07-29T03:25:54.958Z,18.23
2022-07-29T03:28:28.290Z,18.23
2022-07-29T03:30:57.558Z,18.23
2022-07-29T03:33:31.354Z,18.25
2022-07-29T03:36:01.201Z,18.25
2022-07-29T03:38:32.646Z,18.26
2022-07-29T03:41:08.159Z,18.25
2022-07-29T03:43:49.289Z,18.23
2022-07-29T03:46:23.057Z,18.27
2022-07-29T03:49:00.593Z,18.27
2022-07-29T03:51:33.770Z,18.24
2022-07-29T03:54:09.307Z,18.27
2022-07-29T03:56:45.577Z,18.26
2022-07-29T03:59:17.639Z,18.26
2022-07-29T04:01:48.651Z,18.26
2022-07-29T04:04:19.975Z,18.24
2022-07-29T04:06:50.654Z,18.26
2022-07-29T04:09:24.125Z,18.27
2022-07-29T04:12:01.704Z,18.30
2022-07-29T04:14:31.342Z,18.32
2022-07-29T04:17:00.642Z,18.34
2022-07-29T04:19:30.615Z,18.36
2022-07-29T04:21:59.470Z,18.37
2022-07-29T04:24:28.216Z,18.38
2022-07-29T04:26:57.523Z,18.39
2022-07-29T04:29:26.605Z,18.41
2022-07-29T04:31:55.040Z,18.42
2022-07-29T04:34:28.168Z,18.41
2022-07-29T04:36:58.472Z,18.42
2022-07-29T04:39:29.624Z,18.42
2022-07-29T04:41:59.401Z,18.41
2022-07-29T04:44:30.137Z,18.41
2022-07-29T04:46:59.640Z,18.41
2022-07-29T04:49:28.771Z,18.42
2022-07-29T04:51:59.223Z,18.44
2022-07-29T04:54:28.901Z,18.45
2022-07-29T04:56:58.936Z,18.44
2022-07-29T04:59:28.025Z,18.45
2022-07-29T05:01:57.127Z,18.48
2022-07-29T05:04:26.653Z,18.48
2022-07-29T05:06:57.600Z,18.48
2022-07-29T05:09:26.577Z,18.51
2022-07-29T05:11:55.065Z,18.50
2022-07-29T05:14:24.092Z,18.53
2022-07-29T05:16:54.563Z,18.55
2022-07-29T05:19:23.023Z,18.55
2022-07-29T05:21:51.993Z,18.57
2022-07-29T05:24:22.431Z,18.57
2022-07-29T05:26:50.919Z,18.62
2022-07-29T05:29:42.640Z,18.64
2022-07-29T05:32:09.228Z,18.67
2022-07-29T05:34:38.287Z,18.71
2022-07-29T05:37:20.936Z,18.75
2022-07-29T05:39:56.692Z,18.78
2022-07-29T05:42:26.386Z,18.82
2022-07-29T05:44:56.335Z,18.87
2022-07-29T05:47:26.366Z,18.92
2022-07-29T05:49:55.015Z,18.98
2022-07-29T05:52:23.889Z,19.03
2022-07-29T05:54:54.435Z,19.08
2022-07-29T05:57:25.085Z,19.11
2022-07-29T05:59:55.105Z,19.18
2022-07-29T06:02:23.721Z,19.23
2022-07-29T06:04:52.694Z,19.28
2022-07-29T06:07:21.564Z,19.34
2022-07-29T06:09:50.237Z,19.39
2022-07-29T06:12:21.049Z,19.41
2022-07-29T06:14:53.921Z,19.46
2022-07-29T06:17:23.119Z,19.48
2022-07-29T06:19:52.013Z,19.51
2022-07-29T06:22:21.080Z,19.55
2022-07-29T06:24:49.985Z,19.59
2022-07-29T06:27:20.610Z,19.62
2022-07-29T06:29:49.168Z,19.65
2022-07-29T06:32:17.693Z,19.70
2022-07-29T06:34:49.022Z,19.73
2022-07-29T06:37:19.376Z,19.77
2022-07-29T06:39:48.657Z,19.80
2022-07-29T06:42:17.580Z,19.82
2022-07-29T06:44:48.025Z,19.86
2022-07-29T06:47:16.649Z,19.91
2022-07-29T06:49:45.198Z,19.95
2022-07-29T06:52:14.061Z,19.99
2022-07-29T06:54:49.536Z,20.03
2022-07-29T06:57:18.684Z,20.09
2022-07-29T06:59:49.995Z,20.14
2022-07-29T07:02:18.515Z,20.18
2022-07-29T07:04:47.089Z,20.22
2022-07-29T07:07:18.713Z,20.26
2022-07-29T07:09:47.291Z,20.30
2022-07-29T07:12:16.850Z,20.34
2022-07-29T07:14:46.021Z,20.38
2022-07-29T07:17:16.099Z,20.41
2022-07-29T07:19:44.696Z,20.44
2022-07-29T07:22:14.805Z,20.47
2022-07-29T07:24:43.372Z,20.51
2022-07-29T07:27:11.905Z,20.55
2022-07-29T07:29:43.514Z,20.60
2022-07-29T07:32:14.221Z,20.65
2022-07-29T07:34:44.247Z,20.70
2022-07-29T07:37:12.891Z,20.74
2022-07-29T07:39:41.456Z,20.77
2022-07-29T07:42:12.421Z,20.81
2022-07-29T07:45:03.808Z,20.87
2022-07-29T07:47:30.809Z,20.97
2022-07-29T07:50:05.287Z,21.02
2022-07-29T07:52:34.161Z,21.08
2022-07-29T07:55:03.214Z,21.14
2022-07-29T07:57:31.746Z,21.22
2022-07-29T08:00:00.247Z,21.29
2022-07-29T08:02:29.040Z,21.36
2022-07-29T08:04:57.784Z,21.42
2022-07-29T08:07:28.844Z,21.48
2022-07-29T08:09:57.480Z,21.55
2022-07-29T08:12:25.996Z,21.62
2022-07-29T08:14:55.137Z,21.66
2022-07-29T08:17:24.523Z,21.70
2022-07-29T08:19:53.145Z,21.74
2022-07-29T08:22:22.192Z,21.80
2022-07-29T08:24:57.164Z,21.87
2022-07-29T08:27:43.021Z,21.92
2022-07-29T08:30:13.841Z,22.02
2022-07-29T08:32:57.937Z,22.07
2022-07-29T08:35:27.052Z,22.13
2022-07-29T08:37:57.796Z,22.20
2022-07-29T08:40:31.988Z,22.25
2022-07-29T08:43:02.532Z,22.31
2022-07-29T08:45:32.104Z,22.37
2022-07-29T08:48:01.752Z,22.39
2022-07-29T08:50:30.574Z,22.47
2022-07-29T08:52:59.998Z,22.52
2022-07-29T08:55:31.201Z,22.57
2022-07-29T08:58:01.052Z,22.64
2022-07-29T09:00:31.618Z,22.72
2022-07-29T09:03:02.083Z,22.80
2022-07-29T09:05:32.854Z,22.88
2022-07-29T09:08:04.740Z,22.95
2022-07-29T09:10:34.806Z,23.00
2022-07-29T09:13:04.048Z,23.04
2022-07-29T09:15:33.459Z,23.11
2022-07-29T09:18:03.216Z,23.15
2022-07-29T09:20:52.116Z,23.17
2022-07-29T09:23:23.284Z,23.22
2022-07-29T09:25:54.804Z,23.27
2022-07-29T09:28:24.834Z,23.34
2022-07-29T09:30:55.419Z,23.43
2022-07-29T09:33:25.851Z,23.48
2022-07-29T09:36:04.733Z,23.57
2022-07-29T09:38:36.365Z,23.61
2022-07-29T09:41:09.080Z,23.68
2022-07-29T09:43:38.927Z,23.74
2022-07-29T09:46:13.692Z,23.79
2022-07-29T09:48:42.453Z,23.87
2022-07-29T09:51:24.175Z,23.88
2022-07-29T09:53:57.136Z,23.94
2022-07-29T09:56:42.022Z,24.02
2022-07-29T09:59:12.289Z,24.08
2022-07-29T10:01:40.904Z,24.11
2022-07-29T10:04:09.675Z,24.20
2022-07-29T10:07:03.807Z,24.24
2022-07-29T10:09:34.310Z,24.33
2022-07-29T10:12:29.189Z,24.43
2022-07-29T10:14:58.188Z,24.48
2022-07-29T10:17:27.648Z,24.53
2022-07-29T10:19:56.851Z,24.57
2022-07-29T10:22:50.793Z,24.62
2022-07-29T10:25:14.794Z,24.68
2022-07-29T10:27:45.953Z,24.68
2022-07-29T10:30:16.879Z,24.73
2022-07-29T10:33:02.430Z,24.77
2022-07-29T10:35:47.984Z,24.80
2022-07-29T10:38:47.092Z,24.89
2022-07-29T10:41:44.710Z,24.97
2022-07-29T10:44:23.183Z,25.11
2022-07-29T10:47:22.528Z,25.20
2022-07-29T10:50:01.104Z,25.30
2022-07-29T10:52:57.512Z,25.39
2022-07-29T10:55:43.427Z,25.45
2022-07-29T10:58:19.836Z,25.51
2022-07-29T11:00:51.917Z,25.55
2022-07-29T11:03:50.358Z,25.61
2022-07-29T11:09:25.791Z,25.71
2022-07-29T11:12:05.697Z,25.75
2022-07-29T11:15:02.474Z,25.83
2022-07-29T11:18:15.148Z,25.88
2022-07-29T11:20:51.094Z,25.97
2022-07-29T11:23:28.206Z,26.08
2022-07-29T11:29:23.959Z,26.28
2022-07-29T11:31:56.777Z,26.39
2022-07-29T11:34:31.476Z,26.50
2022-07-29T11:37:27.971Z,26.57
2022-07-29T11:40:20.289Z,26.65
2022-07-29T11:42:53.337Z,26.73
2022-07-29T11:45:44.312Z,26.79
2022-07-29T11:48:31.778Z,26.84
2022-07-29T11:51:13.679Z,26.88
2022-07-29T11:53:43.133Z,26.93
2022-07-29T11:56:20.924Z,26.95
2022-07-29T11:59:08.473Z,26.91
2022-07-29T12:01:37.863Z,26.98
2022-07-29T12:04:07.910Z,26.97
2022-07-29T12:06:38.351Z,26.93
2022-07-29T12:07:03.694Z,26.18
2022-07-29T12:09:14.702Z,26.97
2022-07-29T12:11:45.032Z,27.08
2022-07-29T12:14:30.926Z,27.13
2022-07-29T12:17:00.761Z,27.15
2022-07-29T12:19:29.522Z,27.24
2022-07-29T12:22:02.526Z,27.33
2022-07-29T12:24:46.077Z,27.39
2022-07-29T12:27:19.572Z,27.40
2022-07-29T12:29:58.988Z,27.44
2022-07-29T12:32:35.936Z,27.50
2022-07-29T12:35:08.696Z,27.60
2022-07-29T12:37:42.675Z,27.62
2022-07-29T12:40:15.887Z,27.63
2022-07-29T12:43:08.059Z,27.52
2022-07-29T12:45:37.806Z,27.60
2022-07-29T12:48:09.524Z,27.57
2022-07-29T12:50:54.167Z,27.55
2022-07-29T12:53:24.219Z,27.49
2022-07-29T12:55:55.441Z,27.55
2022-07-29T12:58:33.378Z,27.51
2022-07-29T13:01:17.414Z,27.60
2022-07-29T13:03:57.380Z,27.66
2022-07-29T13:06:39.931Z,27.62
2022-07-29T13:09:16.161Z,27.67
2022-07-29T13:11:48.744Z,27.66
2022-07-29T13:14:34.534Z,27.61
2022-07-29T13:17:07.440Z,27.63
2022-07-29T13:19:41.328Z,27.72
2022-07-29T13:22:12.618Z,27.64
2022-07-29T13:24:54.095Z,27.73
2022-07-29T13:27:25.314Z,27.72
2022-07-29T13:29:57.390Z,27.80
2022-07-29T13:32:28.349Z,27.90
2022-07-29T13:34:59.755Z,27.93
2022-07-29T13:37:30.650Z,27.82
2022-07-29T13:40:01.980Z,27.80
2022-07-29T13:42:30.808Z,27.88
2022-07-29T13:45:00.198Z,27.94
2022-07-29T13:47:32.426Z,27.95
2022-07-29T13:50:03.818Z,28.11
2022-07-29T13:52:34.675Z,28.14
2022-07-29T13:55:05.798Z,28.20
2022-07-29T13:57:34.863Z,28.16
2022-07-29T14:00:04.616Z,28.22
2022-07-29T14:02:34.116Z,28.33
2022-07-29T14:05:07.668Z,28.30
2022-07-29T14:07:37.714Z,28.26
2022-07-29T14:10:09.643Z,28.30
2022-07-29T14:12:38.394Z,28.30
2022-07-29T14:15:09.382Z,28.44
2022-07-29T14:17:38.054Z,28.54
2022-07-29T14:20:08.232Z,28.59
2022-07-29T14:22:42.462Z,28.60
2022-07-29T14:25:15.667Z,28.58
2022-07-29T14:27:45.345Z,28.64
2022-07-29T14:30:15.125Z,28.54
2022-07-29T14:32:44.368Z,28.52
2022-07-29T14:35:12.984Z,28.58
2022-07-29T14:37:41.626Z,28.49
2022-07-29T14:40:12.180Z,28.52
2022-07-29T14:42:42.301Z,28.45
2022-07-29T14:45:12.124Z,28.42
2022-07-29T14:47:42.053Z,28.41
2022-07-29T14:50:12.118Z,28.39
2022-07-29T14:52:41.002Z,28.32
2022-07-29T14:55:16.559Z,28.28
2022-07-29T14:57:50.985Z,28.33
2022-07-29T15:00:21.783Z,28.34
2022-07-29T15:03:01.757Z,28.34
2022-07-29T15:05:31.894Z,28.33
2022-07-29T15:08:01.604Z,28.33
2022-07-29T15:10:30.579Z,28.32
2022-07-29T15:13:00.505Z,28.29
2022-07-29T15:15:29.040Z,28.28
2022-07-29T15:17:57.558Z,28.25
2022-07-29T15:20:28.114Z,28.24
2022-07-29T15:22:58.876Z,28.22
2022-07-29T15:25:28.608Z,28.27
2022-07-29T15:28:01.155Z,28.31
2022-07-29T15:30:34.420Z,28.40
2022-07-29T15:33:04.991Z,28.50
2022-07-29T15:35:40.312Z,28.58
2022-07-29T15:38:10.171Z,28.64
2022-07-29T15:40:42.151Z,28.67
2022-07-29T15:43:10.655Z,28.70
2022-07-29T15:45:42.231Z,28.72
2022-07-29T15:48:14.945Z,28.71
2022-07-29T15:50:47.059Z,28.67
2022-07-29T15:53:16.455Z,28.67
2022-07-29T15:55:46.111Z,28.64
2022-07-29T15:58:15.216Z,28.61
2022-07-29T16:00:45.183Z,28.61
2022-07-29T16:03:13.870Z,28.57
2022-07-29T16:05:42.517Z,28.54
2022-07-29T16:08:11.428Z,28.50
2022-07-29T16:10:40.047Z,28.49
2022-07-29T16:13:08.788Z,28.50
2022-07-29T16:15:37.868Z,28.56
2022-07-29T16:18:09.581Z,28.61
2022-07-29T16:20:38.293Z,28.61
2022-07-29T16:23:07.759Z,28.65
2022-07-29T16:25:58.837Z,28.62
2022-07-29T16:28:25.128Z,28.64
2022-07-29T16:30:53.579Z,28.71
2022-07-29T16:33:24.632Z,28.78
2022-07-29T16:35:54.331Z,28.81
2022-07-29T16:38:22.895Z,28.85
2022-07-29T16:40:52.079Z,28.85
2022-07-29T16:43:20.679Z,28.87
2022-07-29T16:45:49.214Z,28.94
2022-07-29T16:48:18.778Z,28.97
2022-07-29T16:50:48.745Z,28.90
2022-07-29T16:53:17.249Z,28.92
2022-07-29T16:55:46.480Z,28.99
2022-07-29T16:58:15.026Z,28.94
2022-07-29T17:00:44.050Z,28.99
2022-07-29T17:03:12.800Z,29.07
2022-07-29T17:05:52.412Z,29.12
2022-07-29T17:08:25.398Z,29.08
2022-07-29T17:10:54.411Z,29.06
2022-07-29T17:13:23.119Z,28.92
2022-07-29T17:15:51.650Z,28.77
2022-07-29T17:18:20.103Z,28.67
2022-07-29T17:20:48.679Z,28.47
2022-07-29T17:23:17.133Z,28.44
2022-07-29T17:25:47.115Z,28.35
2022-07-29T17:28:16.006Z,28.20
2022-07-29T17:30:44.458Z,28.14
2022-07-29T17:33:12.915Z,28.01
2022-07-29T17:35:58.585Z,27.87
2022-07-29T17:38:27.721Z,27.59
2022-07-29T17:40:57.859Z,27.46
2022-07-29T17:43:26.856Z,27.29
2022-07-29T17:45:59.267Z,27.17
2022-07-29T17:48:28.671Z,27.17
2022-07-29T17:50:58.576Z,26.99
2022-07-29T17:53:27.046Z,26.96
2022-07-29T17:55:58.295Z,26.83
2022-07-29T17:58:27.389Z,26.72
2022-07-29T18:00:55.866Z,26.66
2022-07-29T18:03:25.673Z,26.62
2022-07-29T18:05:54.641Z,26.59
2022-07-29T18:08:23.263Z,26.60
2022-07-29T18:10:52.372Z,26.56
2022-07-29T18:13:22.400Z,26.53
2022-07-29T18:15:50.965Z,26.56
2022-07-29T18:18:20.413Z,26.55
2022-07-29T18:20:49.248Z,26.52
2022-07-29T18:23:18.034Z,26.46
2022-07-29T18:25:46.502Z,26.45
2022-07-29T18:28:15.018Z,26.42
2022-07-29T18:30:46.177Z,26.40
2022-07-29T18:33:22.149Z,26.34
2022-07-29T18:36:11.282Z,26.31
2022-07-29T18:38:41.924Z,26.30
2022-07-29T18:41:10.457Z,26.27
2022-07-29T18:43:39.001Z,26.15
2022-07-29T18:46:09.516Z,26.13
2022-07-29T18:48:38.657Z,26.09
2022-07-29T18:51:09.295Z,26.08
2022-07-29T18:53:38.616Z,26.04
2022-07-29T18:56:07.220Z,25.94
2022-07-29T18:58:37.096Z,25.91
2022-07-29T19:01:05.762Z,25.88
2022-07-29T19:03:35.879Z,25.83
2022-07-29T19:06:04.812Z,25.77
2022-07-29T19:08:34.469Z,25.73
2022-07-29T19:11:03.014Z,25.66
2022-07-29T19:13:33.225Z,25.62
2022-07-29T19:16:02.114Z,25.56
2022-07-29T19:18:30.658Z,25.46
2022-07-29T19:21:00.550Z,25.39
2022-07-29T19:23:29.732Z,25.33
2022-07-29T19:25:59.554Z,25.29
2022-07-29T19:28:28.848Z,25.26
2022-07-29T19:30:58.861Z,25.20
2022-07-29T19:33:27.560Z,25.14
2022-07-29T19:35:56.492Z,25.02
2022-07-29T19:38:26.561Z,24.97
2022-07-29T19:40:56.003Z,24.91
2022-07-29T19:43:51.239Z,24.86
2022-07-29T19:46:13.181Z,24.79
2022-07-29T19:48:41.903Z,24.67
2022-07-29T19:51:11.192Z,24.54
2022-07-29T19:53:41.541Z,24.46
2022-07-29T19:56:10.543Z,24.46
2022-07-29T19:58:40.539Z,24.40
2022-07-29T20:01:10.969Z,24.37
2022-07-29T20:03:41.193Z,24.34
2022-07-29T20:06:09.688Z,24.29
2022-07-29T20:08:40.028Z,24.21
2022-07-29T20:11:08.567Z,24.14
2022-07-29T20:13:37.085Z,24.09
2022-07-29T20:16:08.303Z,24.06
2022-07-29T20:18:37.198Z,23.99
2022-07-29T20:21:05.868Z,23.95
2022-07-29T20:23:34.675Z,23.85
2022-07-29T20:26:09.296Z,23.80
2022-07-29T20:28:40.292Z,23.76
2022-07-29T20:31:09.152Z,23.68
2022-07-29T20:33:37.896Z,23.65
2022-07-29T20:36:07.458Z,23.64
2022-07-29T20:38:36.871Z,23.62
2022-07-29T20:41:07.414Z,23.56
2022-07-29T20:43:38.899Z,23.53
2022-07-29T20:46:07.794Z,23.50
2022-07-29T20:48:37.030Z,23.41
2022-07-29T20:51:06.373Z,23.38
2022-07-29T20:53:35.547Z,23.32
2022-07-29T20:56:04.165Z,23.30
2022-07-29T20:58:34.660Z,23.23
2022-07-29T21:01:03.825Z,23.13
2022-07-29T21:03:32.564Z,23.10
2022-07-29T21:06:01.504Z,23.04
2022-07-29T21:08:30.608Z,22.90
2022-07-29T21:10:59.125Z,22.89
2022-07-29T21:13:28.075Z,22.82
2022-07-29T21:16:03.380Z,22.77
2022-07-29T21:18:37.350Z,22.70
2022-07-29T21:21:06.990Z,22.66
2022-07-29T21:23:35.973Z,22.52
2022-07-29T21:26:09.871Z,22.51
2022-07-29T21:28:40.685Z,22.40
2022-07-29T21:31:13.741Z,22.41
2022-07-29T21:33:44.437Z,22.35
2022-07-29T21:36:46.858Z,22.32
2022-07-29T21:39:07.130Z,22.25
2022-07-29T21:41:36.440Z,22.23
2022-07-29T21:44:05.040Z,22.18
2022-07-29T21:46:36.556Z,22.10
2022-07-29T21:49:05.237Z,22.02
2022-07-29T21:51:34.389Z,21.87
2022-07-29T21:54:03.436Z,21.87
2022-07-29T21:56:32.015Z,21.82
2022-07-29T21:59:01.406Z,21.73
2022-07-29T22:01:39.019Z,21.73
2022-07-29T22:04:09.685Z,21.67
2022-07-29T22:06:38.289Z,21.66
2022-07-29T22:09:06.990Z,21.54
2022-07-29T22:11:36.753Z,21.40
2022-07-29T22:14:05.476Z,21.36
2022-07-29T22:16:34.116Z,21.34
2022-07-29T22:19:06.352Z,21.37
2022-07-29T22:21:36.194Z,21.35
2022-07-29T22:24:05.685Z,21.29
2022-07-29T22:26:34.917Z,21.15
2022-07-29T22:29:03.855Z,21.14
2022-07-29T22:31:32.485Z,21.03
2022-07-29T22:34:01.575Z,21.04
2022-07-29T22:36:30.240Z,20.95
2022-07-29T22:39:00.528Z,20.91
2022-07-29T22:41:29.615Z,20.86
2022-07-29T22:43:58.111Z,20.87
2022-07-29T22:46:26.971Z,20.81
2022-07-29T22:48:55.659Z,20.82
2022-07-29T22:51:27.114Z,20.79
2022-07-29T22:53:55.742Z,20.68
2022-07-29T22:56:26.227Z,20.58
2022-07-29T22:58:55.518Z,20.50
2022-07-29T23:01:37.251Z,20.51
2022-07-29T23:04:07.454Z,20.48
2022-07-29T23:06:36.310Z,20.42
2022-07-29T23:09:05.243Z,20.32
2022-07-29T23:11:35.750Z,20.21
2022-07-29T23:14:04.217Z,20.13
2022-07-29T23:16:33.027Z,20.16
2022-07-29T23:19:02.648Z,20.10
2022-07-29T23:21:31.267Z,20.07
2022-07-29T23:23:59.776Z,20.09
2022-07-29T23:26:28.329Z,20.07
2022-07-29T23:28:58.830Z,20.08
2022-07-29T23:31:27.419Z,20.02
2022-07-29T23:33:56.986Z,20.01
2022-07-29T23:36:25.427Z,19.96
2022-07-29T23:38:58.064Z,19.92
2022-07-29T23:41:31.999Z,19.87
2022-07-29T23:44:03.349Z,19.89
2022-07-29T23:46:31.838Z,19.78
2022-07-29T23:49:00.945Z,19.66
2022-07-29T23:51:30.880Z,19.56
2022-07-29T23:53:59.937Z,19.61
2022-07-29T23:56:28.906Z,19.57
2022-07-29T23:58:57.958Z,19.54
